sensor_id;sensor_type;location;lat;lon;timestamp;P1;durP1;ratioP1;P2;durP2;ratioP2
20093;SDS011;10206;48.012;10.030;2023-11-19T00:01:23;3.40;;;2.80;;
20093;SDS011;10206;48.012;10.030;2023-11-19T00:03:49;3.03;;;2.73;;
20093;SDS011;10206;48.012;10.030;2023-11-19T00:06:15;3.00;;;2.70;;
20093;SDS011;10206;48.012;10.030;2023-11-19T00:08:41;3.23;;;2.93;;
20093;SDS011;10206;48.012;10.030;2023-11-19T00:11:11;3.40;;;3.10;;
20093;SDS011;10206;48.012;10.030;2023-11-19T00:13:40;3.70;;;2.90;;
20093;SDS011;10206;48.012;10.030;2023-11-19T00:16:06;3.30;;;2.87;;
20093;SDS011;10206;48.012;10.030;2023-11-19T00:18:34;3.50;;;3.20;;
20093;SDS011;10206;48.012;10.030;2023-11-19T00:21:04;4.13;;;3.57;;
20093;SDS011;10206;48.012;10.030;2023-11-19T00:23:32;5.40;;;3.67;;
20093;SDS011;10206;48.012;10.030;2023-11-19T00:25:59;4.00;;;3.33;;
20093;SDS011;10206;48.012;10.030;2023-11-19T00:28:25;4.40;;;3.90;;
20093;SDS011;10206;48.012;10.030;2023-11-19T00:30:51;4.00;;;3.60;;
20093;SDS011;10206;48.012;10.030;2023-11-19T00:33:18;4.13;;;3.37;;
20093;SDS011;10206;48.012;10.030;2023-11-19T00:35:44;6.00;;;4.00;;
20093;SDS011;10206;48.012;10.030;2023-11-19T00:38:10;4.50;;;4.10;;
20093;SDS011;10206;48.012;10.030;2023-11-19T00:40:36;5.43;;;4.23;;
20093;SDS011;10206;48.012;10.030;2023-11-19T00:43:02;4.87;;;4.37;;
20093;SDS011;10206;48.012;10.030;2023-11-19T00:45:28;6.70;;;4.13;;
20093;SDS011;10206;48.012;10.030;2023-11-19T00:47:54;4.90;;;4.30;;
20093;SDS011;10206;48.012;10.030;2023-11-19T00:50:20;4.97;;;4.37;;
20093;SDS011;10206;48.012;10.030;2023-11-19T00:52:47;6.00;;;4.40;;
20093;SDS011;10206;48.012;10.030;2023-11-19T00:55:13;6.97;;;5.00;;
20093;SDS011;10206;48.012;10.030;2023-11-19T00:57:39;5.17;;;4.37;;
20093;SDS011;10206;48.012;10.030;2023-11-19T01:00:06;4.77;;;4.27;;
20093;SDS011;10206;48.012;10.030;2023-11-19T01:02:40;6.73;;;4.60;;
20093;SDS011;10206;48.012;10.030;2023-11-19T01:05:07;4.83;;;4.33;;
20093;SDS011;10206;48.012;10.030;2023-11-19T01:07:34;5.60;;;4.47;;
20093;SDS011;10206;48.012;10.030;2023-11-19T01:10:00;5.37;;;4.47;;
20093;SDS011;10206;48.012;10.030;2023-11-19T01:12:27;4.80;;;4.30;;
20093;SDS011;10206;48.012;10.030;2023-11-19T01:14:53;5.80;;;4.30;;
20093;SDS011;10206;48.012;10.030;2023-11-19T01:17:20;4.80;;;4.30;;
20093;SDS011;10206;48.012;10.030;2023-11-19T01:19:46;4.40;;;3.83;;
20093;SDS011;10206;48.012;10.030;2023-11-19T01:22:12;5.53;;;4.43;;
20093;SDS011;10206;48.012;10.030;2023-11-19T01:24:38;5.33;;;4.63;;
20093;SDS011;10206;48.012;10.030;2023-11-19T01:27:04;7.70;;;4.40;;
20093;SDS011;10206;48.012;10.030;2023-11-19T01:29:30;5.23;;;4.10;;
20093;SDS011;10206;48.012;10.030;2023-11-19T01:31:56;4.90;;;4.20;;
20093;SDS011;10206;48.012;10.030;2023-11-19T01:34:22;5.00;;;4.20;;
20093;SDS011;10206;48.012;10.030;2023-11-19T01:36:48;5.53;;;3.93;;
20093;SDS011;10206;48.012;10.030;2023-11-19T01:39:15;5.47;;;3.87;;
20093;SDS011;10206;48.012;10.030;2023-11-19T01:41:41;4.53;;;4.00;;
20093;SDS011;10206;48.012;10.030;2023-11-19T01:44:07;3.60;;;3.27;;
20093;SDS011;10206;48.012;10.030;2023-11-19T01:46:34;3.60;;;3.20;;
20093;SDS011;10206;48.012;10.030;2023-11-19T01:49:00;3.53;;;3.23;;
20093;SDS011;10206;48.012;10.030;2023-11-19T01:51:30;3.50;;;3.20;;
20093;SDS011;10206;48.012;10.030;2023-11-19T01:53:56;3.50;;;3.20;;
20093;SDS011;10206;48.012;10.030;2023-11-19T01:56:23;3.17;;;2.90;;
20093;SDS011;10206;48.012;10.030;2023-11-19T01:58:50;4.27;;;2.93;;
20093;SDS011;10206;48.012;10.030;2023-11-19T02:01:19;3.57;;;2.83;;
20093;SDS011;10206;48.012;10.030;2023-11-19T02:03:45;3.63;;;3.07;;
20093;SDS011;10206;48.012;10.030;2023-11-19T02:06:12;3.90;;;3.43;;
20093;SDS011;10206;48.012;10.030;2023-11-19T02:08:38;3.80;;;3.37;;
20093;SDS011;10206;48.012;10.030;2023-11-19T02:11:05;4.27;;;3.77;;
20093;SDS011;10206;48.012;10.030;2023-11-19T02:13:34;4.10;;;3.70;;
20093;SDS011;10206;48.012;10.030;2023-11-19T02:16:02;5.23;;;3.90;;
20093;SDS011;10206;48.012;10.030;2023-11-19T02:18:29;5.60;;;3.90;;
20093;SDS011;10206;48.012;10.030;2023-11-19T02:20:58;4.50;;;4.10;;
20093;SDS011;10206;48.012;10.030;2023-11-19T02:23:27;4.10;;;3.70;;
20093;SDS011;10206;48.012;10.030;2023-11-19T02:28:43;4.67;;;3.87;;
20093;SDS011;10206;48.012;10.030;2023-11-19T02:31:10;4.93;;;4.37;;
20093;SDS011;10206;48.012;10.030;2023-11-19T02:33:39;7.10;;;4.53;;
20093;SDS011;10206;48.012;10.030;2023-11-19T02:36:06;5.67;;;4.50;;
20093;SDS011;10206;48.012;10.030;2023-11-19T02:38:36;5.83;;;4.53;;
20093;SDS011;10206;48.012;10.030;2023-11-19T02:41:06;5.80;;;4.60;;
20093;SDS011;10206;48.012;10.030;2023-11-19T02:43:32;5.13;;;4.47;;
20093;SDS011;10206;48.012;10.030;2023-11-19T02:46:02;5.27;;;4.70;;
20093;SDS011;10206;48.012;10.030;2023-11-19T02:48:32;6.03;;;4.30;;
20093;SDS011;10206;48.012;10.030;2023-11-19T02:51:00;5.40;;;4.47;;
20093;SDS011;10206;48.012;10.030;2023-11-19T02:53:28;5.20;;;4.70;;
20093;SDS011;10206;48.012;10.030;2023-11-19T02:55:55;6.77;;;4.57;;
20093;SDS011;10206;48.012;10.030;2023-11-19T02:58:27;5.00;;;4.20;;
20093;SDS011;10206;48.012;10.030;2023-11-19T03:00:54;4.70;;;4.13;;
20093;SDS011;10206;48.012;10.030;2023-11-19T03:03:24;4.40;;;3.80;;
20093;SDS011;10206;48.012;10.030;2023-11-19T03:05:56;5.30;;;3.97;;
20093;SDS011;10206;48.012;10.030;2023-11-19T03:08:22;4.60;;;4.13;;
20093;SDS011;10206;48.012;10.030;2023-11-19T03:10:48;4.33;;;3.93;;
20093;SDS011;10206;48.012;10.030;2023-11-19T03:13:14;3.90;;;3.50;;
20093;SDS011;10206;48.012;10.030;2023-11-19T03:15:42;4.47;;;4.07;;
20093;SDS011;10206;48.012;10.030;2023-11-19T03:18:08;4.33;;;3.93;;
20093;SDS011;10206;48.012;10.030;2023-11-19T03:20:34;4.27;;;3.80;;
20093;SDS011;10206;48.012;10.030;2023-11-19T03:23:00;5.57;;;3.87;;
20093;SDS011;10206;48.012;10.030;2023-11-19T03:25:26;5.27;;;4.20;;
20093;SDS011;10206;48.012;10.030;2023-11-19T03:27:58;4.93;;;4.23;;
20093;SDS011;10206;48.012;10.030;2023-11-19T03:30:26;5.27;;;4.10;;
20093;SDS011;10206;48.012;10.030;2023-11-19T03:32:53;4.57;;;3.60;;
20093;SDS011;10206;48.012;10.030;2023-11-19T03:35:20;4.50;;;3.93;;
20093;SDS011;10206;48.012;10.030;2023-11-19T03:37:46;5.90;;;3.83;;
20093;SDS011;10206;48.012;10.030;2023-11-19T03:40:12;5.53;;;3.80;;
20093;SDS011;10206;48.012;10.030;2023-11-19T03:42:39;4.30;;;3.90;;
20093;SDS011;10206;48.012;10.030;2023-11-19T03:45:08;4.73;;;3.80;;
20093;SDS011;10206;48.012;10.030;2023-11-19T03:47:35;5.53;;;4.40;;
20093;SDS011;10206;48.012;10.030;2023-11-19T03:50:01;5.77;;;4.33;;
20093;SDS011;10206;48.012;10.030;2023-11-19T03:52:28;8.30;;;4.37;;
20093;SDS011;10206;48.012;10.030;2023-11-19T03:54:54;6.33;;;4.27;;
20093;SDS011;10206;48.012;10.030;2023-11-19T03:57:22;6.00;;;4.60;;
20093;SDS011;10206;48.012;10.030;2023-11-19T03:59:48;5.10;;;4.43;;
20093;SDS011;10206;48.012;10.030;2023-11-19T04:02:15;4.20;;;3.57;;
20093;SDS011;10206;48.012;10.030;2023-11-19T04:04:41;4.87;;;4.30;;
20093;SDS011;10206;48.012;10.030;2023-11-19T04:07:07;4.97;;;4.13;;
20093;SDS011;10206;48.012;10.030;2023-11-19T04:09:34;4.33;;;3.80;;
20093;SDS011;10206;48.012;10.030;2023-11-19T04:12:02;6.87;;;4.17;;
20093;SDS011;10206;48.012;10.030;2023-11-19T04:14:29;4.40;;;3.80;;
20093;SDS011;10206;48.012;10.030;2023-11-19T04:16:55;4.30;;;3.90;;
20093;SDS011;10206;48.012;10.030;2023-11-19T04:19:21;5.10;;;4.47;;
20093;SDS011;10206;48.012;10.030;2023-11-19T04:21:47;5.93;;;4.60;;
20093;SDS011;10206;48.012;10.030;2023-11-19T04:24:13;5.97;;;4.53;;
20093;SDS011;10206;48.012;10.030;2023-11-19T04:26:44;6.50;;;4.50;;
20093;SDS011;10206;48.012;10.030;2023-11-19T04:29:12;5.03;;;4.40;;
20093;SDS011;10206;48.012;10.030;2023-11-19T04:31:39;4.50;;;3.87;;
20093;SDS011;10206;48.012;10.030;2023-11-19T04:34:06;4.53;;;3.97;;
20093;SDS011;10206;48.012;10.030;2023-11-19T04:36:32;4.43;;;3.87;;
20093;SDS011;10206;48.012;10.030;2023-11-19T04:39:01;5.10;;;4.17;;
20093;SDS011;10206;48.012;10.030;2023-11-19T04:41:34;8.40;;;6.57;;
20093;SDS011;10206;48.012;10.030;2023-11-19T04:44:00;9.73;;;6.90;;
20093;SDS011;10206;48.012;10.030;2023-11-19T04:46:27;8.13;;;6.20;;
20093;SDS011;10206;48.012;10.030;2023-11-19T04:48:53;7.10;;;6.40;;
20093;SDS011;10206;48.012;10.030;2023-11-19T04:51:19;8.07;;;6.00;;
20093;SDS011;10206;48.012;10.030;2023-11-19T04:53:45;5.80;;;5.20;;
20093;SDS011;10206;48.012;10.030;2023-11-19T04:56:11;5.20;;;4.70;;
20093;SDS011;10206;48.012;10.030;2023-11-19T04:58:38;4.63;;;4.17;;
20093;SDS011;10206;48.012;10.030;2023-11-19T05:01:04;4.90;;;4.27;;
20093;SDS011;10206;48.012;10.030;2023-11-19T05:03:31;5.23;;;4.20;;
20093;SDS011;10206;48.012;10.030;2023-11-19T05:06:00;5.53;;;4.20;;
20093;SDS011;10206;48.012;10.030;2023-11-19T05:08:26;4.57;;;4.13;;
20093;SDS011;10206;48.012;10.030;2023-11-19T05:10:52;5.00;;;4.30;;
20093;SDS011;10206;48.012;10.030;2023-11-19T05:13:18;4.53;;;3.50;;
20093;SDS011;10206;48.012;10.030;2023-11-19T05:15:44;4.77;;;4.27;;
20093;SDS011;10206;48.012;10.030;2023-11-19T05:18:10;5.33;;;4.53;;
20093;SDS011;10206;48.012;10.030;2023-11-19T05:20:36;4.33;;;3.80;;
20093;SDS011;10206;48.012;10.030;2023-11-19T05:23:02;5.67;;;4.20;;
20093;SDS011;10206;48.012;10.030;2023-11-19T05:25:28;5.27;;;3.50;;
20093;SDS011;10206;48.012;10.030;2023-11-19T05:27:54;4.40;;;3.43;;
20093;SDS011;10206;48.012;10.030;2023-11-19T05:30:21;3.93;;;3.53;;
20093;SDS011;10206;48.012;10.030;2023-11-19T05:32:47;3.93;;;3.27;;
20093;SDS011;10206;48.012;10.030;2023-11-19T05:35:14;4.77;;;3.40;;
20093;SDS011;10206;48.012;10.030;2023-11-19T05:37:40;5.17;;;3.40;;
20093;SDS011;10206;48.012;10.030;2023-11-19T05:40:06;3.87;;;3.20;;
20093;SDS011;10206;48.012;10.030;2023-11-19T05:42:39;3.63;;;3.33;;
20093;SDS011;10206;48.012;10.030;2023-11-19T05:45:06;3.13;;;2.57;;
20093;SDS011;10206;48.012;10.030;2023-11-19T05:47:33;2.90;;;2.60;;
20093;SDS011;10206;48.012;10.030;2023-11-19T05:49:59;2.90;;;2.60;;
20093;SDS011;10206;48.012;10.030;2023-11-19T05:52:25;3.10;;;2.80;;
20093;SDS011;10206;48.012;10.030;2023-11-19T05:54:53;4.30;;;3.10;;
20093;SDS011;10206;48.012;10.030;2023-11-19T05:57:19;3.30;;;2.87;;
20093;SDS011;10206;48.012;10.030;2023-11-19T05:59:48;3.40;;;3.10;;
20093;SDS011;10206;48.012;10.030;2023-11-19T06:02:14;2.93;;;2.73;;
20093;SDS011;10206;48.012;10.030;2023-11-19T06:04:41;2.87;;;2.67;;
20093;SDS011;10206;48.012;10.030;2023-11-19T06:07:09;2.83;;;2.60;;
20093;SDS011;10206;48.012;10.030;2023-11-19T06:09:35;3.47;;;2.73;;
20093;SDS011;10206;48.012;10.030;2023-11-19T06:12:01;2.70;;;2.50;;
20093;SDS011;10206;48.012;10.030;2023-11-19T06:14:28;3.30;;;3.00;;
20093;SDS011;10206;48.012;10.030;2023-11-19T06:16:54;3.27;;;3.00;;
20093;SDS011;10206;48.012;10.030;2023-11-19T06:19:20;3.30;;;2.87;;
20093;SDS011;10206;48.012;10.030;2023-11-19T06:21:46;3.97;;;3.50;;
20093;SDS011;10206;48.012;10.030;2023-11-19T06:24:13;3.27;;;2.97;;
20093;SDS011;10206;48.012;10.030;2023-11-19T06:26:39;3.43;;;3.13;;
20093;SDS011;10206;48.012;10.030;2023-11-19T06:29:05;4.37;;;3.10;;
20093;SDS011;10206;48.012;10.030;2023-11-19T06:31:32;3.47;;;3.17;;
20093;SDS011;10206;48.012;10.030;2023-11-19T06:33:58;3.70;;;3.40;;
20093;SDS011;10206;48.012;10.030;2023-11-19T06:36:24;5.10;;;4.17;;
20093;SDS011;10206;48.012;10.030;2023-11-19T06:38:51;4.87;;;4.30;;
20093;SDS011;10206;48.012;10.030;2023-11-19T06:41:17;4.87;;;4.47;;
20093;SDS011;10206;48.012;10.030;2023-11-19T06:43:43;4.33;;;3.93;;
20093;SDS011;10206;48.012;10.030;2023-11-19T06:46:16;4.87;;;4.40;;
20093;SDS011;10206;48.012;10.030;2023-11-19T06:48:42;5.03;;;4.63;;
20093;SDS011;10206;48.012;10.030;2023-11-19T06:51:09;5.03;;;4.57;;
20093;SDS011;10206;48.012;10.030;2023-11-19T06:53:36;5.20;;;4.70;;
20093;SDS011;10206;48.012;10.030;2023-11-19T06:56:02;4.73;;;4.23;;
20093;SDS011;10206;48.012;10.030;2023-11-19T06:58:31;4.57;;;4.17;;
20093;SDS011;10206;48.012;10.030;2023-11-19T07:01:00;4.07;;;3.60;;
20093;SDS011;10206;48.012;10.030;2023-11-19T07:03:26;4.03;;;3.63;;
20093;SDS011;10206;48.012;10.030;2023-11-19T07:05:53;4.80;;;3.53;;
20093;SDS011;10206;48.012;10.030;2023-11-19T07:08:20;5.23;;;3.60;;
20093;SDS011;10206;48.012;10.030;2023-11-19T07:10:46;3.83;;;3.43;;
20093;SDS011;10206;48.012;10.030;2023-11-19T07:13:13;3.53;;;3.10;;
20093;SDS011;10206;48.012;10.030;2023-11-19T07:15:40;4.03;;;3.23;;
20093;SDS011;10206;48.012;10.030;2023-11-19T07:18:06;4.43;;;3.90;;
20093;SDS011;10206;48.012;10.030;2023-11-19T07:20:32;4.90;;;4.40;;
20093;SDS011;10206;48.012;10.030;2023-11-19T07:22:58;5.97;;;5.30;;
20093;SDS011;10206;48.012;10.030;2023-11-19T07:25:24;4.07;;;3.67;;
20093;SDS011;10206;48.012;10.030;2023-11-19T07:27:51;5.37;;;4.73;;
20093;SDS011;10206;48.012;10.030;2023-11-19T07:30:18;5.83;;;4.73;;
20093;SDS011;10206;48.012;10.030;2023-11-19T07:32:44;6.70;;;5.50;;
20093;SDS011;10206;48.012;10.030;2023-11-19T07:35:10;6.10;;;5.30;;
20093;SDS011;10206;48.012;10.030;2023-11-19T07:37:36;5.80;;;5.20;;
20093;SDS011;10206;48.012;10.030;2023-11-19T07:40:03;5.43;;;4.93;;
20093;SDS011;10206;48.012;10.030;2023-11-19T07:42:29;7.00;;;6.03;;
20093;SDS011;10206;48.012;10.030;2023-11-19T07:44:56;6.63;;;5.87;;
20093;SDS011;10206;48.012;10.030;2023-11-19T07:47:22;6.67;;;5.97;;
20093;SDS011;10206;48.012;10.030;2023-11-19T07:49:49;9.07;;;6.80;;
20093;SDS011;10206;48.012;10.030;2023-11-19T07:52:16;8.37;;;6.93;;
20093;SDS011;10206;48.012;10.030;2023-11-19T07:54:42;7.10;;;5.57;;
20093;SDS011;10206;48.012;10.030;2023-11-19T07:57:08;4.60;;;4.10;;
20093;SDS011;10206;48.012;10.030;2023-11-19T07:59:34;5.03;;;4.13;;
20093;SDS011;10206;48.012;10.030;2023-11-19T08:02:01;4.20;;;3.50;;
20093;SDS011;10206;48.012;10.030;2023-11-19T08:04:28;4.70;;;3.80;;
20093;SDS011;10206;48.012;10.030;2023-11-19T08:06:54;7.37;;;4.40;;
20093;SDS011;10206;48.012;10.030;2023-11-19T08:09:20;6.13;;;4.10;;
20093;SDS011;10206;48.012;10.030;2023-11-19T08:11:47;6.07;;;4.00;;
20093;SDS011;10206;48.012;10.030;2023-11-19T08:14:13;9.73;;;5.43;;
20093;SDS011;10206;48.012;10.030;2023-11-19T08:16:39;11.37;;;8.10;;
20093;SDS011;10206;48.012;10.030;2023-11-19T08:19:06;47.40;;;33.70;;
20093;SDS011;10206;48.012;10.030;2023-11-19T08:21:33;78.00;;;48.83;;
20093;SDS011;10206;48.012;10.030;2023-11-19T08:23:59;33.10;;;20.43;;
20093;SDS011;10206;48.012;10.030;2023-11-19T08:26:25;93.03;;;56.37;;
20093;SDS011;10206;48.012;10.030;2023-11-19T08:28:51;216.23;;;101.17;;
20093;SDS011;10206;48.012;10.030;2023-11-19T08:31:18;41.00;;;21.33;;
20093;SDS011;10206;48.012;10.030;2023-11-19T08:33:44;101.63;;;51.27;;
20093;SDS011;10206;48.012;10.030;2023-11-19T08:36:14;78.93;;;35.70;;
20093;SDS011;10206;48.012;10.030;2023-11-19T08:38:41;17.07;;;9.37;;
20093;SDS011;10206;48.012;10.030;2023-11-19T08:41:08;7.10;;;4.73;;
20093;SDS011;10206;48.012;10.030;2023-11-19T08:43:34;6.83;;;4.80;;
20093;SDS011;10206;48.012;10.030;2023-11-19T08:46:00;4.43;;;2.53;;
20093;SDS011;10206;48.012;10.030;2023-11-19T08:48:26;17.77;;;8.67;;
20093;SDS011;10206;48.012;10.030;2023-11-19T08:50:52;4.63;;;3.53;;
20093;SDS011;10206;48.012;10.030;2023-11-19T08:53:18;3.97;;;3.10;;
20093;SDS011;10206;48.012;10.030;2023-11-19T08:55:44;2.90;;;2.63;;
20093;SDS011;10206;48.012;10.030;2023-11-19T08:58:10;2.30;;;2.10;;
20093;SDS011;10206;48.012;10.030;2023-11-19T09:00:36;4.37;;;3.97;;
20093;SDS011;10206;48.012;10.030;2023-11-19T09:03:02;3.50;;;2.90;;
20093;SDS011;10206;48.012;10.030;2023-11-19T09:05:29;3.20;;;2.70;;
20093;SDS011;10206;48.012;10.030;2023-11-19T09:07:55;2.97;;;2.70;;
20093;SDS011;10206;48.012;10.030;2023-11-19T09:10:21;3.60;;;2.70;;
20093;SDS011;10206;48.012;10.030;2023-11-19T09:12:47;3.37;;;2.33;;
20093;SDS011;10206;48.012;10.030;2023-11-19T09:15:13;1.93;;;1.83;;
20093;SDS011;10206;48.012;10.030;2023-11-19T09:17:39;2.43;;;1.70;;
20093;SDS011;10206;48.012;10.030;2023-11-19T09:20:06;2.90;;;2.70;;
20093;SDS011;10206;48.012;10.030;2023-11-19T09:22:33;3.43;;;2.40;;
20093;SDS011;10206;48.012;10.030;2023-11-19T09:24:59;4.93;;;3.40;;
20093;SDS011;10206;48.012;10.030;2023-11-19T09:27:25;3.27;;;2.50;;
20093;SDS011;10206;48.012;10.030;2023-11-19T09:29:51;3.07;;;2.57;;
20093;SDS011;10206;48.012;10.030;2023-11-19T09:32:22;2.00;;;1.80;;
20093;SDS011;10206;48.012;10.030;2023-11-19T09:34:48;3.63;;;2.60;;
20093;SDS011;10206;48.012;10.030;2023-11-19T09:37:14;4.97;;;3.83;;
20093;SDS011;10206;48.012;10.030;2023-11-19T09:39:41;7.00;;;3.97;;
20093;SDS011;10206;48.012;10.030;2023-11-19T09:42:11;2.80;;;2.47;;
20093;SDS011;10206;48.012;10.030;2023-11-19T09:44:38;3.60;;;2.53;;
20093;SDS011;10206;48.012;10.030;2023-11-19T09:47:07;3.93;;;3.00;;
20093;SDS011;10206;48.012;10.030;2023-11-19T09:49:35;6.97;;;4.20;;
20093;SDS011;10206;48.012;10.030;2023-11-19T09:52:01;2.10;;;1.80;;
20093;SDS011;10206;48.012;10.030;2023-11-19T09:54:28;2.80;;;1.60;;
20093;SDS011;10206;48.012;10.030;2023-11-19T09:56:55;2.00;;;1.50;;
20093;SDS011;10206;48.012;10.030;2023-11-19T09:59:28;1.43;;;1.33;;
20093;SDS011;10206;48.012;10.030;2023-11-19T10:01:56;1.93;;;1.40;;
20093;SDS011;10206;48.012;10.030;2023-11-19T10:04:22;1.97;;;1.30;;
20093;SDS011;10206;48.012;10.030;2023-11-19T10:06:49;2.07;;;1.40;;
20093;SDS011;10206;48.012;10.030;2023-11-19T10:09:16;1.33;;;1.23;;
20093;SDS011;10206;48.012;10.030;2023-11-19T10:11:42;3.67;;;1.87;;
20093;SDS011;10206;48.012;10.030;2023-11-19T10:14:09;2.10;;;1.67;;
20093;SDS011;10206;48.012;10.030;2023-11-19T10:16:35;1.80;;;1.30;;
20093;SDS011;10206;48.012;10.030;2023-11-19T10:19:02;1.73;;;1.33;;
20093;SDS011;10206;48.012;10.030;2023-11-19T10:21:29;3.13;;;1.30;;
20093;SDS011;10206;48.012;10.030;2023-11-19T10:23:57;1.40;;;1.30;;
20093;SDS011;10206;48.012;10.030;2023-11-19T10:26:25;2.60;;;1.43;;
20093;SDS011;10206;48.012;10.030;2023-11-19T10:28:52;2.17;;;0.97;;
20093;SDS011;10206;48.012;10.030;2023-11-19T10:31:19;1.00;;;0.90;;
20093;SDS011;10206;48.012;10.030;2023-11-19T10:33:54;1.10;;;1.00;;
20093;SDS011;10206;48.012;10.030;2023-11-19T10:36:21;1.30;;;1.20;;
20093;SDS011;10206;48.012;10.030;2023-11-19T10:38:55;1.43;;;1.33;;
20093;SDS011;10206;48.012;10.030;2023-11-19T10:43:55;2.47;;;1.20;;
20093;SDS011;10206;48.012;10.030;2023-11-19T10:46:22;1.37;;;1.07;;
20093;SDS011;10206;48.012;10.030;2023-11-19T10:49:00;1.53;;;1.20;;
20093;SDS011;10206;48.012;10.030;2023-11-19T10:51:26;1.07;;;1.07;;
20093;SDS011;10206;48.012;10.030;2023-11-19T10:53:54;2.57;;;0.90;;
20093;SDS011;10206;48.012;10.030;2023-11-19T10:56:25;1.73;;;1.00;;
20093;SDS011;10206;48.012;10.030;2023-11-19T10:58:55;1.00;;;0.90;;
20093;SDS011;10206;48.012;10.030;2023-11-19T11:01:24;1.37;;;1.20;;
20093;SDS011;10206;48.012;10.030;2023-11-19T11:03:56;1.33;;;0.83;;
20093;SDS011;10206;48.012;10.030;2023-11-19T11:06:25;0.97;;;0.90;;
20093;SDS011;10206;48.012;10.030;2023-11-19T11:08:53;1.40;;;1.00;;
20093;SDS011;10206;48.012;10.030;2023-11-19T11:11:20;1.10;;;1.00;;
20093;SDS011;10206;48.012;10.030;2023-11-19T11:13:48;1.23;;;1.13;;
20093;SDS011;10206;48.012;10.030;2023-11-19T11:16:20;1.80;;;1.60;;
20093;SDS011;10206;48.012;10.030;2023-11-19T11:18:48;2.47;;;1.83;;
20093;SDS011;10206;48.012;10.030;2023-11-19T11:21:17;1.60;;;1.47;;
20093;SDS011;10206;48.012;10.030;2023-11-19T11:23:56;2.53;;;1.90;;
20093;SDS011;10206;48.012;10.030;2023-11-19T11:29:37;4.40;;;2.63;;
20093;SDS011;10206;48.012;10.030;2023-11-19T11:32:30;1.50;;;1.30;;
20093;SDS011;10206;48.012;10.030;2023-11-19T11:35:08;1.30;;;1.17;;
20093;SDS011;10206;48.012;10.030;2023-11-19T11:37:56;1.67;;;1.13;;
20093;SDS011;10206;48.012;10.030;2023-11-19T11:40:31;1.23;;;1.13;;
20093;SDS011;10206;48.012;10.030;2023-11-19T11:42:58;1.90;;;1.07;;
20093;SDS011;10206;48.012;10.030;2023-11-19T11:45:45;2.00;;;1.40;;
20093;SDS011;10206;48.012;10.030;2023-11-19T11:48:19;1.00;;;0.90;;
20093;SDS011;10206;48.012;10.030;2023-11-19T11:50:47;2.03;;;1.30;;
20093;SDS011;10206;48.012;10.030;2023-11-19T11:53:22;1.73;;;1.10;;
20093;SDS011;10206;48.012;10.030;2023-11-19T11:58:19;0.80;;;0.80;;
20093;SDS011;10206;48.012;10.030;2023-11-19T12:00:45;1.57;;;0.97;;
20093;SDS011;10206;48.012;10.030;2023-11-19T12:03:13;1.40;;;0.80;;
20093;SDS011;10206;48.012;10.030;2023-11-19T12:05:44;0.77;;;0.77;;
20093;SDS011;10206;48.012;10.030;2023-11-19T12:08:11;1.20;;;1.10;;
20093;SDS011;10206;48.012;10.030;2023-11-19T12:10:44;1.77;;;1.40;;
20093;SDS011;10206;48.012;10.030;2023-11-19T12:13:12;1.87;;;1.57;;
20093;SDS011;10206;48.012;10.030;2023-11-19T12:18:24;1.40;;;1.30;;
20093;SDS011;10206;48.012;10.030;2023-11-19T12:20:52;1.43;;;1.33;;
20093;SDS011;10206;48.012;10.030;2023-11-19T12:23:19;1.33;;;1.10;;
20093;SDS011;10206;48.012;10.030;2023-11-19T12:25:45;1.00;;;0.90;;
20093;SDS011;10206;48.012;10.030;2023-11-19T12:28:12;1.20;;;1.10;;
20093;SDS011;10206;48.012;10.030;2023-11-19T12:30:39;1.20;;;1.10;;
20093;SDS011;10206;48.012;10.030;2023-11-19T12:33:09;0.87;;;0.87;;
20093;SDS011;10206;48.012;10.030;2023-11-19T12:35:42;1.50;;;1.40;;
20093;SDS011;10206;48.012;10.030;2023-11-19T12:38:22;0.97;;;0.97;;
20093;SDS011;10206;48.012;10.030;2023-11-19T12:41:05;1.53;;;1.43;;
20093;SDS011;10206;48.012;10.030;2023-11-19T12:43:32;1.50;;;1.40;;
20093;SDS011;10206;48.012;10.030;2023-11-19T12:46:03;1.47;;;1.20;;
20093;SDS011;10206;48.012;10.030;2023-11-19T12:48:42;1.73;;;1.60;;
20093;SDS011;10206;48.012;10.030;2023-11-19T12:51:08;2.27;;;1.17;;
20093;SDS011;10206;48.012;10.030;2023-11-19T12:53:46;2.30;;;0.90;;
20093;SDS011;10206;48.012;10.030;2023-11-19T12:56:19;1.20;;;1.10;;
20093;SDS011;10206;48.012;10.030;2023-11-19T12:58:46;1.53;;;0.80;;
20093;SDS011;10206;48.012;10.030;2023-11-19T13:01:17;0.80;;;0.77;;
20093;SDS011;10206;48.012;10.030;2023-11-19T13:03:45;1.40;;;0.80;;
20093;SDS011;10206;48.012;10.030;2023-11-19T13:06:12;1.07;;;1.00;;
20093;SDS011;10206;48.012;10.030;2023-11-19T13:08:45;1.40;;;1.30;;
20093;SDS011;10206;48.012;10.030;2023-11-19T13:11:30;1.80;;;1.10;;
20093;SDS011;10206;48.012;10.030;2023-11-19T13:14:02;1.10;;;1.00;;
20093;SDS011;10206;48.012;10.030;2023-11-19T13:16:37;1.70;;;1.60;;
20093;SDS011;10206;48.012;10.030;2023-11-19T13:19:03;1.50;;;1.10;;
20093;SDS011;10206;48.012;10.030;2023-11-19T13:21:30;1.40;;;1.30;;
20093;SDS011;10206;48.012;10.030;2023-11-19T13:23:57;1.50;;;1.10;;
20093;SDS011;10206;48.012;10.030;2023-11-19T13:26:23;1.30;;;1.10;;
20093;SDS011;10206;48.012;10.030;2023-11-19T13:28:49;1.43;;;1.23;;
20093;SDS011;10206;48.012;10.030;2023-11-19T13:31:15;1.43;;;1.10;;
20093;SDS011;10206;48.012;10.030;2023-11-19T13:33:42;1.43;;;1.20;;
20093;SDS011;10206;48.012;10.030;2023-11-19T13:36:08;1.50;;;1.40;;
20093;SDS011;10206;48.012;10.030;2023-11-19T13:38:34;1.40;;;1.20;;
20093;SDS011;10206;48.012;10.030;2023-11-19T13:41:01;1.60;;;1.10;;
20093;SDS011;10206;48.012;10.030;2023-11-19T13:43:29;2.20;;;1.10;;
20093;SDS011;10206;48.012;10.030;2023-11-19T13:45:56;1.53;;;1.03;;
20093;SDS011;10206;48.012;10.030;2023-11-19T13:48:23;1.40;;;1.30;;
20093;SDS011;10206;48.012;10.030;2023-11-19T13:50:49;1.47;;;1.20;;
20093;SDS011;10206;48.012;10.030;2023-11-19T13:53:16;2.10;;;1.40;;
20093;SDS011;10206;48.012;10.030;2023-11-19T13:55:42;1.50;;;1.33;;
20093;SDS011;10206;48.012;10.030;2023-11-19T13:58:08;1.33;;;1.07;;
20093;SDS011;10206;48.012;10.030;2023-11-19T14:00:35;1.37;;;1.20;;
20093;SDS011;10206;48.012;10.030;2023-11-19T14:03:02;1.30;;;1.20;;
20093;SDS011;10206;48.012;10.030;2023-11-19T14:05:28;2.17;;;1.43;;
20093;SDS011;10206;48.012;10.030;2023-11-19T14:07:54;2.30;;;1.50;;
20093;SDS011;10206;48.012;10.030;2023-11-19T14:10:21;1.30;;;1.20;;
20093;SDS011;10206;48.012;10.030;2023-11-19T14:12:48;3.13;;;1.97;;
20093;SDS011;10206;48.012;10.030;2023-11-19T14:15:17;4.03;;;2.00;;
20093;SDS011;10206;48.012;10.030;2023-11-19T14:17:43;2.27;;;1.43;;
20093;SDS011;10206;48.012;10.030;2023-11-19T14:20:09;3.17;;;1.90;;
20093;SDS011;10206;48.012;10.030;2023-11-19T14:22:42;1.60;;;1.10;;
20093;SDS011;10206;48.012;10.030;2023-11-19T14:25:09;1.43;;;1.30;;
20093;SDS011;10206;48.012;10.030;2023-11-19T14:27:40;1.20;;;1.10;;
20093;SDS011;10206;48.012;10.030;2023-11-19T14:30:07;1.10;;;1.00;;
20093;SDS011;10206;48.012;10.030;2023-11-19T14:32:36;2.20;;;1.13;;
20093;SDS011;10206;48.012;10.030;2023-11-19T14:35:02;2.03;;;0.90;;
20093;SDS011;10206;48.012;10.030;2023-11-19T14:37:29;0.97;;;0.93;;
20093;SDS011;10206;48.012;10.030;2023-11-19T14:39:56;2.13;;;1.17;;
20093;SDS011;10206;48.012;10.030;2023-11-19T14:42:31;2.60;;;1.07;;
20093;SDS011;10206;48.012;10.030;2023-11-19T14:44:58;2.60;;;1.10;;
20093;SDS011;10206;48.012;10.030;2023-11-19T14:47:25;1.57;;;1.00;;
20093;SDS011;10206;48.012;10.030;2023-11-19T14:49:51;1.27;;;1.17;;